Overview Statistics Trail Chart Weather Telemetry Raw packets
 

This is the latest recevied weather packets stored in our database for station/object KG5APU. If no packets are shown the sender has not sent any weather packets the latest 10 day(s).

<< 27 28 29 30 31 32 33 >>
Time Temp. Humidity Pressure Rain* Wind** Luminosity Snow
1788224553 33.89° C 45% 1014.2 hPa 0 mm - 1 W/m² -
1788223953 34.44° C 44% 1014.4 hPa 0 mm - 4 W/m² -
1788223347 35° C 41% 1014.4 hPa 0 mm - 10 W/m² -
1788222747 35° C 41% 1014.4 hPa 0 mm - 18 W/m² -
1788222148 35.56° C 41% 1014.2 hPa 0 mm - 29 W/m² -
1788221544 36.11° C 40% 1014.2 hPa 0 mm - 41 W/m² -
1788220940 36.11° C 40% 1014.2 hPa 0 mm - 54 W/m² -
1788220335 36.67° C 40% 1014.2 hPa 0 mm - 71 W/m² -
1788219735 36.67° C 38% 1014.4 hPa 0 mm - 90 W/m² -
1788219132 36.67° C 38% 1014.4 hPa 0 mm - 80 W/m² -
1788218529 37.78° C 36% 1014.1 hPa 0 mm - 174 W/m² -
1788217926 38.33° C 34% 1014.3 hPa 0 mm - 125 W/m² -
1788217322 38.33° C 35% 1014.3 hPa 0 mm - 226 W/m² -
1788216721 37.78° C 34% 1014.7 hPa 0 mm - 229 W/m² -
1788216118 37.22° C 36% 1014.4 hPa 0 mm - 251 W/m² -
1788215516 37.22° C 36% 1014.7 hPa 0 mm - 110 W/m² -
1788214913 37.22° C 36% 1014.4 hPa 0 mm - 350 W/m² -
1788214309 37.22° C 37% 1014.9 hPa 0 mm - 147 W/m² -
1788213705 37.22° C 38% 1014.8 hPa 0 mm - 389 W/m² -
1788213102 38.89° C 34% 1014.8 hPa 0 mm - 461 W/m² -
1788212501 38.89° C 33% 1014.6 hPa 0 mm - 522 W/m² -
1788211898 38.89° C 31% 1014.7 hPa 0 mm - 561 W/m² -
1788211298 38.33° C 34% 1015.3 hPa 0 mm - 607 W/m² -
1788210695 37.78° C 35% 1015.1 hPa 0 mm - 572 W/m² -
1788210092 37.78° C 34% 1015.1 hPa 0 mm - 617 W/m² -

* Rain latest hour (hover to see other rain measurements)
** Current wind speed in m/s (hover to see current wind gust speed)